sensor_id;sensor_type;location;lat;lon;timestamp;P1;durP1;ratioP1;P2;durP2;ratioP2
43114;SDS011;28727;50.068;14.452;2023-03-14T00:00:41;8.52;;;5.10;;
43114;SDS011;28727;50.068;14.452;2023-03-14T00:03:13;8.38;;;5.00;;
43114;SDS011;28727;50.068;14.452;2023-03-14T00:05:44;11.70;;;4.68;;
43114;SDS011;28727;50.068;14.452;2023-03-14T00:08:18;9.83;;;4.87;;
43114;SDS011;28727;50.068;14.452;2023-03-14T00:10:52;10.98;;;5.18;;
43114;SDS011;28727;50.068;14.452;2023-03-14T00:13:24;9.57;;;5.32;;
43114;SDS011;28727;50.068;14.452;2023-03-14T00:16:01;10.98;;;5.47;;
43114;SDS011;28727;50.068;14.452;2023-03-14T00:18:34;8.02;;;5.22;;
43114;SDS011;28727;50.068;14.452;2023-03-14T00:21:07;9.57;;;5.40;;
43114;SDS011;28727;50.068;14.452;2023-03-14T00:23:41;8.52;;;5.20;;
43114;SDS011;28727;50.068;14.452;2023-03-14T00:26:15;8.23;;;5.05;;
43114;SDS011;28727;50.068;14.452;2023-03-14T00:28:52;10.20;;;6.45;;
43114;SDS011;28727;50.068;14.452;2023-03-14T00:31:24;10.63;;;5.45;;
43114;SDS011;28727;50.068;14.452;2023-03-14T00:33:56;9.88;;;5.57;;
43114;SDS011;28727;50.068;14.452;2023-03-14T00:36:28;12.88;;;5.57;;
43114;SDS011;28727;50.068;14.452;2023-03-14T00:39:00;8.55;;;5.13;;
43114;SDS011;28727;50.068;14.452;2023-03-14T00:41:31;9.30;;;5.53;;
43114;SDS011;28727;50.068;14.452;2023-03-14T00:44:04;10.20;;;6.30;;
43114;SDS011;28727;50.068;14.452;2023-03-14T00:46:36;10.50;;;5.75;;
43114;SDS011;28727;50.068;14.452;2023-03-14T00:49:10;8.30;;;5.20;;
43114;SDS011;28727;50.068;14.452;2023-03-14T00:51:42;9.18;;;5.80;;
43114;SDS011;28727;50.068;14.452;2023-03-14T00:54:15;8.95;;;5.53;;
43114;SDS011;28727;50.068;14.452;2023-03-14T00:56:47;9.95;;;5.35;;
43114;SDS011;28727;50.068;14.452;2023-03-14T00:59:19;10.15;;;5.68;;
43114;SDS011;28727;50.068;14.452;2023-03-14T01:01:51;11.15;;;5.35;;
43114;SDS011;28727;50.068;14.452;2023-03-14T01:04:23;8.82;;;4.63;;
43114;SDS011;28727;50.068;14.452;2023-03-14T01:06:54;8.70;;;4.25;;
43114;SDS011;28727;50.068;14.452;2023-03-14T01:09:26;9.60;;;4.55;;
43114;SDS011;28727;50.068;14.452;2023-03-14T01:11:58;8.02;;;4.47;;
43114;SDS011;28727;50.068;14.452;2023-03-14T01:14:30;8.13;;;4.38;;
43114;SDS011;28727;50.068;14.452;2023-03-14T01:17:02;5.97;;;3.90;;
43114;SDS011;28727;50.068;14.452;2023-03-14T01:19:34;8.27;;;4.45;;
43114;SDS011;28727;50.068;14.452;2023-03-14T01:22:05;6.70;;;3.80;;
43114;SDS011;28727;50.068;14.452;2023-03-14T01:24:38;7.30;;;3.88;;
43114;SDS011;28727;50.068;14.452;2023-03-14T01:27:10;8.52;;;4.15;;
43114;SDS011;28727;50.068;14.452;2023-03-14T01:29:42;6.82;;;4.22;;
43114;SDS011;28727;50.068;14.452;2023-03-14T01:32:14;6.38;;;3.50;;
43114;SDS011;28727;50.068;14.452;2023-03-14T01:34:46;8.27;;;3.83;;
43114;SDS011;28727;50.068;14.452;2023-03-14T01:37:18;6.82;;;4.00;;
43114;SDS011;28727;50.068;14.452;2023-03-14T01:39:51;6.47;;;4.25;;
43114;SDS011;28727;50.068;14.452;2023-03-14T01:42:23;7.72;;;4.65;;
43114;SDS011;28727;50.068;14.452;2023-03-14T01:44:59;7.18;;;4.65;;
43114;SDS011;28727;50.068;14.452;2023-03-14T01:47:33;7.20;;;4.53;;
43114;SDS011;28727;50.068;14.452;2023-03-14T01:50:06;7.55;;;4.32;;
43114;SDS011;28727;50.068;14.452;2023-03-14T01:52:44;7.13;;;4.15;;
43114;SDS011;28727;50.068;14.452;2023-03-14T01:55:21;8.60;;;4.45;;
43114;SDS011;28727;50.068;14.452;2023-03-14T01:57:59;8.55;;;4.60;;
43114;SDS011;28727;50.068;14.452;2023-03-14T02:00:35;8.45;;;4.70;;
43114;SDS011;28727;50.068;14.452;2023-03-14T02:03:09;8.15;;;4.45;;
43114;SDS011;28727;50.068;14.452;2023-03-14T02:05:45;10.30;;;4.75;;
43114;SDS011;28727;50.068;14.452;2023-03-14T02:08:22;9.13;;;3.90;;
43114;SDS011;28727;50.068;14.452;2023-03-14T02:11:00;7.03;;;4.63;;
43114;SDS011;28727;50.068;14.452;2023-03-14T02:13:58;9.75;;;4.63;;
43114;SDS011;28727;50.068;14.452;2023-03-14T02:16:51;14.07;;;5.63;;
43114;SDS011;28727;50.068;14.452;2023-03-14T02:22:35;9.27;;;4.53;;
43114;SDS011;28727;50.068;14.452;2023-03-14T02:25:31;7.95;;;4.40;;
43114;SDS011;28727;50.068;14.452;2023-03-14T02:28:10;7.90;;;4.40;;
43114;SDS011;28727;50.068;14.452;2023-03-14T02:30:43;8.52;;;5.03;;
43114;SDS011;28727;50.068;14.452;2023-03-14T02:33:17;8.60;;;4.90;;
43114;SDS011;28727;50.068;14.452;2023-03-14T02:35:57;7.70;;;4.40;;
43114;SDS011;28727;50.068;14.452;2023-03-14T02:41:13;7.97;;;4.88;;
43114;SDS011;28727;50.068;14.452;2023-03-14T02:43:51;7.55;;;4.45;;
43114;SDS011;28727;50.068;14.452;2023-03-14T02:46:23;8.45;;;5.00;;
43114;SDS011;28727;50.068;14.452;2023-03-14T02:49:03;9.05;;;4.97;;
43114;SDS011;28727;50.068;14.452;2023-03-14T02:51:44;9.30;;;5.28;;
43114;SDS011;28727;50.068;14.452;2023-03-14T02:54:18;8.75;;;5.30;;
43114;SDS011;28727;50.068;14.452;2023-03-14T02:56:52;10.27;;;4.95;;
43114;SDS011;28727;50.068;14.452;2023-03-14T02:59:24;9.00;;;4.57;;
43114;SDS011;28727;50.068;14.452;2023-03-14T03:02:00;11.80;;;6.05;;
43114;SDS011;28727;50.068;14.452;2023-03-14T03:04:32;15.15;;;6.03;;
43114;SDS011;28727;50.068;14.452;2023-03-14T03:07:03;9.07;;;6.20;;
43114;SDS011;28727;50.068;14.452;2023-03-14T03:09:35;9.73;;;5.55;;
43114;SDS011;28727;50.068;14.452;2023-03-14T03:12:12;8.97;;;5.30;;
43114;SDS011;28727;50.068;14.452;2023-03-14T03:14:44;9.00;;;4.72;;
43114;SDS011;28727;50.068;14.452;2023-03-14T03:17:16;10.50;;;5.22;;
43114;SDS011;28727;50.068;14.452;2023-03-14T03:19:48;10.95;;;5.43;;
43114;SDS011;28727;50.068;14.452;2023-03-14T03:22:21;8.75;;;5.30;;
43114;SDS011;28727;50.068;14.452;2023-03-14T03:24:53;7.88;;;5.00;;
43114;SDS011;28727;50.068;14.452;2023-03-14T03:27:29;9.02;;;5.32;;
43114;SDS011;28727;50.068;14.452;2023-03-14T03:30:03;7.60;;;4.97;;
43114;SDS011;28727;50.068;14.452;2023-03-14T03:32:38;8.38;;;4.95;;
43114;SDS011;28727;50.068;14.452;2023-03-14T03:35:09;7.78;;;4.43;;
43114;SDS011;28727;50.068;14.452;2023-03-14T03:37:43;10.15;;;5.20;;
43114;SDS011;28727;50.068;14.452;2023-03-14T03:40:14;7.75;;;4.65;;
43114;SDS011;28727;50.068;14.452;2023-03-14T03:42:46;11.10;;;4.95;;
43114;SDS011;28727;50.068;14.452;2023-03-14T03:45:19;10.60;;;4.82;;
43114;SDS011;28727;50.068;14.452;2023-03-14T03:47:56;8.60;;;4.55;;
43114;SDS011;28727;50.068;14.452;2023-03-14T03:50:27;7.93;;;4.47;;
43114;SDS011;28727;50.068;14.452;2023-03-14T03:52:59;7.45;;;4.60;;
43114;SDS011;28727;50.068;14.452;2023-03-14T03:55:31;8.98;;;4.88;;
43114;SDS011;28727;50.068;14.452;2023-03-14T03:58:03;7.28;;;5.38;;
43114;SDS011;28727;50.068;14.452;2023-03-14T04:00:35;8.23;;;4.97;;
43114;SDS011;28727;50.068;14.452;2023-03-14T04:03:07;7.63;;;4.60;;
43114;SDS011;28727;50.068;14.452;2023-03-14T04:05:39;8.85;;;5.47;;
43114;SDS011;28727;50.068;14.452;2023-03-14T04:08:13;8.20;;;4.93;;
43114;SDS011;28727;50.068;14.452;2023-03-14T04:10:47;7.50;;;4.85;;
43114;SDS011;28727;50.068;14.452;2023-03-14T04:13:34;9.13;;;5.22;;
43114;SDS011;28727;50.068;14.452;2023-03-14T04:16:17;9.35;;;5.40;;
43114;SDS011;28727;50.068;14.452;2023-03-14T04:21:26;8.77;;;4.75;;
43114;SDS011;28727;50.068;14.452;2023-03-14T04:24:00;8.75;;;5.30;;
43114;SDS011;28727;50.068;14.452;2023-03-14T04:26:35;8.35;;;4.97;;
43114;SDS011;28727;50.068;14.452;2023-03-14T04:29:08;9.15;;;4.90;;
43114;SDS011;28727;50.068;14.452;2023-03-14T04:31:42;8.77;;;5.13;;
43114;SDS011;28727;50.068;14.452;2023-03-14T04:34:14;7.25;;;3.78;;
43114;SDS011;28727;50.068;14.452;2023-03-14T04:36:52;7.20;;;4.13;;
43114;SDS011;28727;50.068;14.452;2023-03-14T04:39:30;4.22;;;2.80;;
43114;SDS011;28727;50.068;14.452;2023-03-14T04:42:28;4.93;;;2.10;;
43114;SDS011;28727;50.068;14.452;2023-03-14T04:45:00;2.42;;;1.42;;
43114;SDS011;28727;50.068;14.452;2023-03-14T04:47:34;2.58;;;1.30;;
43114;SDS011;28727;50.068;14.452;2023-03-14T04:50:08;2.08;;;1.20;;
43114;SDS011;28727;50.068;14.452;2023-03-14T04:52:40;2.30;;;1.00;;
43114;SDS011;28727;50.068;14.452;2023-03-14T04:55:12;1.42;;;0.98;;
43114;SDS011;28727;50.068;14.452;2023-03-14T04:57:44;1.13;;;0.80;;
43114;SDS011;28727;50.068;14.452;2023-03-14T05:00:16;2.60;;;1.00;;
43114;SDS011;28727;50.068;14.452;2023-03-14T05:06:09;1.65;;;1.25;;
43114;SDS011;28727;50.068;14.452;2023-03-14T05:08:51;1.58;;;0.77;;
43114;SDS011;28727;50.068;14.452;2023-03-14T05:11:40;1.65;;;0.80;;
43114;SDS011;28727;50.068;14.452;2023-03-14T05:14:37;1.23;;;0.80;;
43114;SDS011;28727;50.068;14.452;2023-03-14T05:17:39;1.40;;;0.80;;
43114;SDS011;28727;50.068;14.452;2023-03-14T05:20:30;1.33;;;0.85;;
43114;SDS011;28727;50.068;14.452;2023-03-14T05:23:24;1.75;;;0.80;;
43114;SDS011;28727;50.068;14.452;2023-03-14T05:26:07;2.03;;;1.23;;
43114;SDS011;28727;50.068;14.452;2023-03-14T05:28:57;1.27;;;0.77;;
43114;SDS011;28727;50.068;14.452;2023-03-14T05:31:38;1.17;;;0.63;;
43114;SDS011;28727;50.068;14.452;2023-03-14T05:34:28;1.90;;;0.80;;
43114;SDS011;28727;50.068;14.452;2023-03-14T05:37:13;1.27;;;0.80;;
43114;SDS011;28727;50.068;14.452;2023-03-14T05:40:07;2.42;;;0.90;;
43114;SDS011;28727;50.068;14.452;2023-03-14T05:42:54;2.30;;;0.90;;
43114;SDS011;28727;50.068;14.452;2023-03-14T05:45:38;2.17;;;0.80;;
43114;SDS011;28727;50.068;14.452;2023-03-14T05:48:30;1.92;;;0.98;;
43114;SDS011;28727;50.068;14.452;2023-03-14T05:51:05;1.35;;;0.80;;
43114;SDS011;28727;50.068;14.452;2023-03-14T05:54:06;1.27;;;0.70;;
43114;SDS011;28727;50.068;14.452;2023-03-14T05:57:10;1.67;;;0.70;;
43114;SDS011;28727;50.068;14.452;2023-03-14T06:00:02;1.33;;;0.80;;
43114;SDS011;28727;50.068;14.452;2023-03-14T06:02:45;1.33;;;0.60;;
43114;SDS011;28727;50.068;14.452;2023-03-14T06:05:26;1.45;;;0.93;;
43114;SDS011;28727;50.068;14.452;2023-03-14T06:08:03;2.50;;;1.02;;
43114;SDS011;28727;50.068;14.452;2023-03-14T06:10:36;1.38;;;0.73;;
43114;SDS011;28727;50.068;14.452;2023-03-14T06:13:08;1.55;;;0.82;;
43114;SDS011;28727;50.068;14.452;2023-03-14T06:15:41;2.15;;;0.98;;
43114;SDS011;28727;50.068;14.452;2023-03-14T06:18:13;0.68;;;0.50;;
43114;SDS011;28727;50.068;14.452;2023-03-14T06:20:47;1.30;;;0.70;;
43114;SDS011;28727;50.068;14.452;2023-03-14T06:23:26;1.83;;;0.52;;
43114;SDS011;28727;50.068;14.452;2023-03-14T06:26:01;1.40;;;1.20;;
43114;SDS011;28727;50.068;14.452;2023-03-14T06:28:34;2.10;;;0.60;;
43114;SDS011;28727;50.068;14.452;2023-03-14T06:31:08;1.23;;;0.70;;
43114;SDS011;28727;50.068;14.452;2023-03-14T06:33:49;1.45;;;0.60;;
43114;SDS011;28727;50.068;14.452;2023-03-14T06:36:22;1.05;;;0.80;;
43114;SDS011;28727;50.068;14.452;2023-03-14T06:38:54;1.23;;;0.70;;
43114;SDS011;28727;50.068;14.452;2023-03-14T06:41:26;2.40;;;0.80;;
43114;SDS011;28727;50.068;14.452;2023-03-14T06:43:58;2.53;;;1.30;;
43114;SDS011;28727;50.068;14.452;2023-03-14T06:46:31;1.25;;;0.95;;
43114;SDS011;28727;50.068;14.452;2023-03-14T06:49:04;1.83;;;0.90;;
43114;SDS011;28727;50.068;14.452;2023-03-14T06:51:37;1.38;;;0.70;;
43114;SDS011;28727;50.068;14.452;2023-03-14T06:54:11;1.63;;;0.85;;
43114;SDS011;28727;50.068;14.452;2023-03-14T06:56:43;2.75;;;0.90;;
43114;SDS011;28727;50.068;14.452;2023-03-14T06:59:16;2.55;;;0.90;;
43114;SDS011;28727;50.068;14.452;2023-03-14T07:04:22;1.55;;;0.57;;
43114;SDS011;28727;50.068;14.452;2023-03-14T07:06:54;1.38;;;1.00;;
43114;SDS011;28727;50.068;14.452;2023-03-14T07:09:26;1.23;;;0.77;;
43114;SDS011;28727;50.068;14.452;2023-03-14T07:12:03;1.63;;;0.98;;
43114;SDS011;28727;50.068;14.452;2023-03-14T07:14:35;2.20;;;0.73;;
43114;SDS011;28727;50.068;14.452;2023-03-14T07:17:10;1.85;;;0.80;;
43114;SDS011;28727;50.068;14.452;2023-03-14T07:19:42;1.80;;;0.80;;
43114;SDS011;28727;50.068;14.452;2023-03-14T07:22:14;2.05;;;0.68;;
43114;SDS011;28727;50.068;14.452;2023-03-14T07:24:46;1.23;;;0.60;;
43114;SDS011;28727;50.068;14.452;2023-03-14T07:27:18;1.27;;;0.80;;
43114;SDS011;28727;50.068;14.452;2023-03-14T07:29:50;2.15;;;0.50;;
43114;SDS011;28727;50.068;14.452;2023-03-14T07:32:22;2.00;;;0.88;;
43114;SDS011;28727;50.068;14.452;2023-03-14T07:34:54;1.33;;;0.80;;
43114;SDS011;28727;50.068;14.452;2023-03-14T07:37:26;0.88;;;0.70;;
43114;SDS011;28727;50.068;14.452;2023-03-14T07:39:58;2.35;;;1.17;;
43114;SDS011;28727;50.068;14.452;2023-03-14T07:42:33;2.50;;;0.80;;
43114;SDS011;28727;50.068;14.452;2023-03-14T07:45:18;1.98;;;0.60;;
43114;SDS011;28727;50.068;14.452;2023-03-14T07:47:49;2.70;;;0.88;;
43114;SDS011;28727;50.068;14.452;2023-03-14T07:50:22;5.55;;;2.05;;
43114;SDS011;28727;50.068;14.452;2023-03-14T07:52:54;2.03;;;0.60;;
43114;SDS011;28727;50.068;14.452;2023-03-14T07:55:29;1.30;;;0.82;;
43114;SDS011;28727;50.068;14.452;2023-03-14T08:00:33;1.98;;;0.73;;
43114;SDS011;28727;50.068;14.452;2023-03-14T08:03:04;1.23;;;0.60;;
43114;SDS011;28727;50.068;14.452;2023-03-14T08:05:37;1.55;;;0.70;;
43114;SDS011;28727;50.068;14.452;2023-03-14T08:08:09;2.33;;;0.90;;
43114;SDS011;28727;50.068;14.452;2023-03-14T08:10:41;0.70;;;0.57;;
43114;SDS011;28727;50.068;14.452;2023-03-14T08:13:13;2.15;;;0.60;;
43114;SDS011;28727;50.068;14.452;2023-03-14T08:15:47;1.45;;;0.70;;
43114;SDS011;28727;50.068;14.452;2023-03-14T08:18:20;2.47;;;0.90;;
43114;SDS011;28727;50.068;14.452;2023-03-14T08:20:54;2.97;;;0.90;;
43114;SDS011;28727;50.068;14.452;2023-03-14T08:23:26;4.20;;;0.80;;
43114;SDS011;28727;50.068;14.452;2023-03-14T08:25:59;1.77;;;1.15;;
43114;SDS011;28727;50.068;14.452;2023-03-14T08:28:34;1.45;;;0.65;;
43114;SDS011;28727;50.068;14.452;2023-03-14T08:31:06;1.42;;;0.50;;
43114;SDS011;28727;50.068;14.452;2023-03-14T08:33:38;3.22;;;0.65;;
43114;SDS011;28727;50.068;14.452;2023-03-14T08:36:09;1.92;;;0.95;;
43114;SDS011;28727;50.068;14.452;2023-03-14T08:38:41;1.38;;;0.60;;
43114;SDS011;28727;50.068;14.452;2023-03-14T08:41:14;0.88;;;0.60;;
43114;SDS011;28727;50.068;14.452;2023-03-14T08:43:45;1.60;;;0.50;;
43114;SDS011;28727;50.068;14.452;2023-03-14T08:46:17;0.88;;;0.65;;
43114;SDS011;28727;50.068;14.452;2023-03-14T08:48:49;1.40;;;0.70;;
43114;SDS011;28727;50.068;14.452;2023-03-14T08:51:21;3.30;;;0.82;;
43114;SDS011;28727;50.068;14.452;2023-03-14T08:53:52;2.50;;;0.85;;
43114;SDS011;28727;50.068;14.452;2023-03-14T08:56:27;1.48;;;0.77;;
43114;SDS011;28727;50.068;14.452;2023-03-14T09:01:31;2.40;;;0.57;;
43114;SDS011;28727;50.068;14.452;2023-03-14T09:04:03;2.80;;;1.10;;
43114;SDS011;28727;50.068;14.452;2023-03-14T09:06:35;1.55;;;0.75;;
43114;SDS011;28727;50.068;14.452;2023-03-14T09:09:07;2.55;;;0.80;;
43114;SDS011;28727;50.068;14.452;2023-03-14T09:11:39;1.25;;;0.68;;
43114;SDS011;28727;50.068;14.452;2023-03-14T09:14:11;2.33;;;0.95;;
43114;SDS011;28727;50.068;14.452;2023-03-14T09:16:43;2.28;;;0.70;;
43114;SDS011;28727;50.068;14.452;2023-03-14T09:19:14;3.15;;;1.13;;
43114;SDS011;28727;50.068;14.452;2023-03-14T09:21:46;3.80;;;0.80;;
43114;SDS011;28727;50.068;14.452;2023-03-14T09:24:18;5.40;;;0.77;;
43114;SDS011;28727;50.068;14.452;2023-03-14T09:26:50;3.25;;;0.77;;
43114;SDS011;28727;50.068;14.452;2023-03-14T09:29:22;1.98;;;0.90;;
43114;SDS011;28727;50.068;14.452;2023-03-14T09:31:54;3.38;;;1.10;;
43114;SDS011;28727;50.068;14.452;2023-03-14T09:34:26;2.30;;;1.48;;
43114;SDS011;28727;50.068;14.452;2023-03-14T09:36:58;2.05;;;0.80;;
43114;SDS011;28727;50.068;14.452;2023-03-14T09:39:31;2.80;;;0.73;;
43114;SDS011;28727;50.068;14.452;2023-03-14T09:42:04;2.80;;;0.90;;
43114;SDS011;28727;50.068;14.452;2023-03-14T09:44:39;2.35;;;0.80;;
43114;SDS011;28727;50.068;14.452;2023-03-14T09:47:19;3.63;;;0.80;;
43114;SDS011;28727;50.068;14.452;2023-03-14T09:49:52;3.45;;;0.70;;
43114;SDS011;28727;50.068;14.452;2023-03-14T09:52:26;6.57;;;1.15;;
43114;SDS011;28727;50.068;14.452;2023-03-14T09:55:07;2.05;;;0.57;;
43114;SDS011;28727;50.068;14.452;2023-03-14T09:57:59;2.67;;;0.80;;
43114;SDS011;28727;50.068;14.452;2023-03-14T10:00:34;5.70;;;0.95;;
43114;SDS011;28727;50.068;14.452;2023-03-14T10:05:44;2.38;;;0.82;;
43114;SDS011;28727;50.068;14.452;2023-03-14T10:08:16;3.83;;;1.10;;
43114;SDS011;28727;50.068;14.452;2023-03-14T10:10:48;2.13;;;0.80;;
43114;SDS011;28727;50.068;14.452;2023-03-14T10:13:21;3.88;;;0.93;;
43114;SDS011;28727;50.068;14.452;2023-03-14T10:16:01;3.22;;;2.00;;
43114;SDS011;28727;50.068;14.452;2023-03-14T10:18:42;2.67;;;0.88;;
43114;SDS011;28727;50.068;14.452;2023-03-14T10:21:26;2.40;;;0.80;;
43114;SDS011;28727;50.068;14.452;2023-03-14T10:27:17;4.93;;;1.55;;
43114;SDS011;28727;50.068;14.452;2023-03-14T10:29:53;3.38;;;1.13;;
43114;SDS011;28727;50.068;14.452;2023-03-14T10:32:36;2.33;;;0.82;;
43114;SDS011;28727;50.068;14.452;2023-03-14T10:37:52;2.65;;;0.77;;
43114;SDS011;28727;50.068;14.452;2023-03-14T10:40:47;6.57;;;1.10;;
43114;SDS011;28727;50.068;14.452;2023-03-14T10:43:23;1.88;;;0.70;;
43114;SDS011;28727;50.068;14.452;2023-03-14T10:45:59;3.38;;;1.00;;
43114;SDS011;28727;50.068;14.452;2023-03-14T10:48:37;3.08;;;0.93;;
43114;SDS011;28727;50.068;14.452;2023-03-14T10:53:48;2.47;;;0.90;;
43114;SDS011;28727;50.068;14.452;2023-03-14T10:56:27;3.13;;;1.20;;
43114;SDS011;28727;50.068;14.452;2023-03-14T10:59:11;2.85;;;0.88;;
43114;SDS011;28727;50.068;14.452;2023-03-14T11:07:40;4.13;;;0.90;;
43114;SDS011;28727;50.068;14.452;2023-03-14T11:10:30;3.85;;;1.02;;
43114;SDS011;28727;50.068;14.452;2023-03-14T11:18:43;1.92;;;0.90;;
43114;SDS011;28727;50.068;14.452;2023-03-14T11:21:32;1.60;;;0.80;;
43114;SDS011;28727;50.068;14.452;2023-03-14T11:27:07;4.30;;;1.10;;
43114;SDS011;28727;50.068;14.452;2023-03-14T11:32:56;1.77;;;0.95;;
43114;SDS011;28727;50.068;14.452;2023-03-14T11:35:58;2.95;;;1.15;;
43114;SDS011;28727;50.068;14.452;2023-03-14T11:38:43;2.70;;;0.90;;
43114;SDS011;28727;50.068;14.452;2023-03-14T11:41:20;2.60;;;0.80;;
43114;SDS011;28727;50.068;14.452;2023-03-14T11:43:57;1.63;;;0.90;;
43114;SDS011;28727;50.068;14.452;2023-03-14T11:46:33;3.17;;;0.90;;
43114;SDS011;28727;50.068;14.452;2023-03-14T11:49:24;1.08;;;0.75;;
43114;SDS011;28727;50.068;14.452;2023-03-14T11:52:04;1.65;;;1.02;;
43114;SDS011;28727;50.068;14.452;2023-03-14T11:54:53;4.43;;;0.98;;
43114;SDS011;28727;50.068;14.452;2023-03-14T11:57:31;2.55;;;0.98;;
43114;SDS011;28727;50.068;14.452;2023-03-14T12:11:22;2.45;;;0.70;;
43114;SDS011;28727;50.068;14.452;2023-03-14T12:14:01;3.30;;;1.27;;
43114;SDS011;28727;50.068;14.452;2023-03-14T12:16:37;2.03;;;0.75;;
43114;SDS011;28727;50.068;14.452;2023-03-14T12:19:26;3.40;;;1.00;;
43114;SDS011;28727;50.068;14.452;2023-03-14T12:24:56;2.80;;;0.80;;
43114;SDS011;28727;50.068;14.452;2023-03-14T12:27:42;2.80;;;0.90;;
43114;SDS011;28727;50.068;14.452;2023-03-14T12:30:37;3.35;;;0.75;;
43114;SDS011;28727;50.068;14.452;2023-03-14T12:35:59;5.13;;;0.90;;
43114;SDS011;28727;50.068;14.452;2023-03-14T12:43:42;3.70;;;0.90;;
43114;SDS011;28727;50.068;14.452;2023-03-14T12:48:55;1.38;;;0.57;;
43114;SDS011;28727;50.068;14.452;2023-03-14T12:51:43;1.88;;;0.80;;
43114;SDS011;28727;50.068;14.452;2023-03-14T12:57:22;2.90;;;0.80;;
43114;SDS011;28727;50.068;14.452;2023-03-14T13:00:17;4.80;;;0.90;;
43114;SDS011;28727;50.068;14.452;2023-03-14T13:02:51;4.65;;;0.88;;
43114;SDS011;28727;50.068;14.452;2023-03-14T13:05:23;1.88;;;0.80;;
43114;SDS011;28727;50.068;14.452;2023-03-14T13:10:30;2.20;;;1.00;;
43114;SDS011;28727;50.068;14.452;2023-03-14T13:13:20;5.57;;;1.02;;
43114;SDS011;28727;50.068;14.452;2023-03-14T13:15:57;3.03;;;1.08;;
43114;SDS011;28727;50.068;14.452;2023-03-14T13:21:36;3.92;;;0.60;;
43114;SDS011;28727;50.068;14.452;2023-03-14T13:24:25;3.13;;;1.20;;
43114;SDS011;28727;50.068;14.452;2023-03-14T13:26:58;4.05;;;0.90;;
43114;SDS011;28727;50.068;14.452;2023-03-14T13:29:30;2.65;;;0.70;;
43114;SDS011;28727;50.068;14.452;2023-03-14T13:32:13;2.20;;;0.80;;
43114;SDS011;28727;50.068;14.452;2023-03-14T13:34:50;2.55;;;1.20;;
43114;SDS011;28727;50.068;14.452;2023-03-14T13:37:23;2.30;;;1.00;;
43114;SDS011;28727;50.068;14.452;2023-03-14T13:39:56;4.30;;;1.25;;
43114;SDS011;28727;50.068;14.452;2023-03-14T13:42:29;2.40;;;0.98;;
43114;SDS011;28727;50.068;14.452;2023-03-14T13:45:01;3.60;;;1.13;;
43114;SDS011;28727;50.068;14.452;2023-03-14T13:47:32;3.55;;;0.90;;
43114;SDS011;28727;50.068;14.452;2023-03-14T13:50:04;1.90;;;0.80;;
43114;SDS011;28727;50.068;14.452;2023-03-14T13:52:37;2.42;;;0.90;;
43114;SDS011;28727;50.068;14.452;2023-03-14T13:55:14;3.10;;;0.93;;
43114;SDS011;28727;50.068;14.452;2023-03-14T13:57:49;1.73;;;0.90;;
43114;SDS011;28727;50.068;14.452;2023-03-14T14:00:27;2.63;;;0.80;;
43114;SDS011;28727;50.068;14.452;2023-03-14T14:03:00;3.30;;;0.90;;
43114;SDS011;28727;50.068;14.452;2023-03-14T14:08:10;2.35;;;1.13;;
43114;SDS011;28727;50.068;14.452;2023-03-14T14:10:43;2.50;;;0.77;;
43114;SDS011;28727;50.068;14.452;2023-03-14T14:13:19;3.17;;;1.40;;
43114;SDS011;28727;50.068;14.452;2023-03-14T14:15:53;3.72;;;0.93;;
43114;SDS011;28727;50.068;14.452;2023-03-14T14:18:26;1.55;;;0.80;;
43114;SDS011;28727;50.068;14.452;2023-03-14T14:21:00;2.63;;;0.90;;
43114;SDS011;28727;50.068;14.452;2023-03-14T14:23:32;5.35;;;0.90;;
43114;SDS011;28727;50.068;14.452;2023-03-14T14:26:05;2.42;;;1.15;;
43114;SDS011;28727;50.068;14.452;2023-03-14T14:28:39;1.83;;;0.80;;
43114;SDS011;28727;50.068;14.452;2023-03-14T14:34:00;2.70;;;1.08;;
43114;SDS011;28727;50.068;14.452;2023-03-14T14:36:39;1.60;;;0.75;;
43114;SDS011;28727;50.068;14.452;2023-03-14T14:39:20;4.18;;;1.10;;
43114;SDS011;28727;50.068;14.452;2023-03-14T14:41:57;4.05;;;1.20;;
43114;SDS011;28727;50.068;14.452;2023-03-14T14:44:33;3.00;;;1.02;;
43114;SDS011;28727;50.068;14.452;2023-03-14T14:47:06;4.40;;;1.38;;
43114;SDS011;28727;50.068;14.452;2023-03-14T14:49:37;4.00;;;1.00;;
43114;SDS011;28727;50.068;14.452;2023-03-14T14:52:15;3.10;;;1.10;;
43114;SDS011;28727;50.068;14.452;2023-03-14T14:54:53;4.03;;;1.10;;
43114;SDS011;28727;50.068;14.452;2023-03-14T14:57:31;5.60;;;1.17;;
43114;SDS011;28727;50.068;14.452;2023-03-14T15:00:08;4.25;;;0.95;;
43114;SDS011;28727;50.068;14.452;2023-03-14T15:02:51;3.83;;;1.10;;
43114;SDS011;28727;50.068;14.452;2023-03-14T15:05:26;2.88;;;1.20;;
43114;SDS011;28727;50.068;14.452;2023-03-14T15:08:02;2.47;;;1.30;;
43114;SDS011;28727;50.068;14.452;2023-03-14T15:10:33;12.43;;;2.30;;
43114;SDS011;28727;50.068;14.452;2023-03-14T15:13:05;3.03;;;1.20;;
43114;SDS011;28727;50.068;14.452;2023-03-14T15:15:41;3.35;;;1.70;;
43114;SDS011;28727;50.068;14.452;2023-03-14T15:18:15;5.57;;;1.90;;
43114;SDS011;28727;50.068;14.452;2023-03-14T15:20:49;5.30;;;1.95;;
43114;SDS011;28727;50.068;14.452;2023-03-14T15:23:21;5.38;;;2.00;;
43114;SDS011;28727;50.068;14.452;2023-03-14T15:25:54;4.45;;;2.45;;
43114;SDS011;28727;50.068;14.452;2023-03-14T15:28:27;4.72;;;1.73;;
43114;SDS011;28727;50.068;14.452;2023-03-14T15:31:03;5.53;;;1.50;;
43114;SDS011;28727;50.068;14.452;2023-03-14T15:33:35;3.70;;;1.70;;
43114;SDS011;28727;50.068;14.452;2023-03-14T15:36:24;4.55;;;2.05;;
43114;SDS011;28727;50.068;14.452;2023-03-14T15:39:00;7.47;;;1.55;;
43114;SDS011;28727;50.068;14.452;2023-03-14T15:41:34;5.75;;;1.30;;
43114;SDS011;28727;50.068;14.452;2023-03-14T15:44:06;3.75;;;1.42;;
43114;SDS011;28727;50.068;14.452;2023-03-14T15:46:37;4.18;;;1.30;;
43114;SDS011;28727;50.068;14.452;2023-03-14T15:49:09;2.88;;;1.23;;
43114;SDS011;28727;50.068;14.452;2023-03-14T15:51:41;6.35;;;2.15;;
43114;SDS011;28727;50.068;14.452;2023-03-14T15:54:12;6.25;;;1.60;;
43114;SDS011;28727;50.068;14.452;2023-03-14T15:56:44;2.40;;;1.20;;
43114;SDS011;28727;50.068;14.452;2023-03-14T15:59:16;2.67;;;1.20;;
43114;SDS011;28727;50.068;14.452;2023-03-14T16:01:48;6.97;;;1.77;;
43114;SDS011;28727;50.068;14.452;2023-03-14T16:04:20;6.47;;;1.50;;
43114;SDS011;28727;50.068;14.452;2023-03-14T16:06:52;5.05;;;1.38;;
43114;SDS011;28727;50.068;14.452;2023-03-14T16:09:26;2.75;;;1.20;;
43114;SDS011;28727;50.068;14.452;2023-03-14T16:11:58;3.00;;;1.13;;
43114;SDS011;28727;50.068;14.452;2023-03-14T16:14:30;1.58;;;1.00;;
43114;SDS011;28727;50.068;14.452;2023-03-14T16:17:02;2.40;;;1.30;;
43114;SDS011;28727;50.068;14.452;2023-03-14T16:19:33;3.38;;;1.10;;
43114;SDS011;28727;50.068;14.452;2023-03-14T16:22:05;2.47;;;1.27;;
43114;SDS011;28727;50.068;14.452;2023-03-14T16:24:37;3.70;;;1.35;;
43114;SDS011;28727;50.068;14.452;2023-03-14T16:27:09;4.15;;;1.17;;
43114;SDS011;28727;50.068;14.452;2023-03-14T16:29:42;5.75;;;1.60;;
43114;SDS011;28727;50.068;14.452;2023-03-14T16:32:14;3.92;;;1.60;;
43114;SDS011;28727;50.068;14.452;2023-03-14T16:34:46;2.72;;;1.50;;
43114;SDS011;28727;50.068;14.452;2023-03-14T16:37:17;4.40;;;1.50;;
43114;SDS011;28727;50.068;14.452;2023-03-14T16:39:52;4.78;;;1.30;;
43114;SDS011;28727;50.068;14.452;2023-03-14T16:42:42;2.55;;;1.30;;
43114;SDS011;28727;50.068;14.452;2023-03-14T16:45:35;5.38;;;1.92;;
43114;SDS011;28727;50.068;14.452;2023-03-14T16:48:08;2.88;;;1.42;;
43114;SDS011;28727;50.068;14.452;2023-03-14T16:50:40;4.03;;;1.73;;